Time;durP1;ratioP1;P1;durP2;ratioP2;P2;SDS_P1;SDS_P2;PMS_P1;PMS_P2;Temp;Humidity;BMP_temperature;BMP_pressure;BME280_temperature;BME280_humidity;BME280_pressure;Samples;Min_cycle;Max_cycle;Signal;HPM_P1;HPM_P2
2021/03/21 00:01:46;;;;;;;12.30;5.63;;;6.90;95.10;;;;;;5089582;27;20044;-87
2021/03/21 00:04:15;;;;;;;15.70;7.30;;;6.90;95.20;;;;;;5081033;28;20394;-88
2021/03/21 00:06:43;;;;;;;11.55;5.55;;;6.80;95.30;;;;;;5083377;28;20100;-86
2021/03/21 00:09:10;;;;;;;9.70;5.38;;;6.80;95.50;;;;;;5083190;28;20433;-86
2021/03/21 00:11:37;;;;;;;12.45;6.07;;;6.90;95.30;;;;;;5079528;28;20044;-87
2021/03/21 00:14:04;;;;;;;15.55;6.68;;;6.90;95.20;;;;;;5099599;28;20128;-87
2021/03/21 00:16:30;;;;;;;17.63;6.72;;;6.80;95.30;;;;;;5082688;28;20077;-86
2021/03/21 00:18:57;;;;;;;13.82;7.00;;;6.80;95.40;;;;;;5095898;28;20048;-87
2021/03/21 00:21:24;;;;;;;13.85;6.53;;;6.90;95.30;;;;;;5100087;28;20174;-86
2021/03/21 00:23:50;;;;;;;13.63;6.88;;;6.90;95.30;;;;;;5082822;28;20052;-87
2021/03/21 00:26:17;;;;;;;14.05;5.80;;;6.90;95.30;;;;;;5077465;28;20048;-87
2021/03/21 00:28:43;;;;;;;15.88;7.03;;;6.80;95.30;;;;;;5069191;28;20522;-86
2021/03/21 00:31:12;;;;;;;13.18;6.80;;;6.80;95.50;;;;;;5081958;28;20110;-86
2021/03/21 00:33:39;;;;;;;14.02;7.20;;;6.90;95.20;;;;;;5072506;28;20044;-86
2021/03/21 00:36:08;;;;;;;11.93;5.95;;;6.80;95.50;;;;;;5082830;28;20040;-86
2021/03/21 00:38:41;;;;;;;17.45;7.13;;;6.90;95.50;;;;;;5080103;28;20049;-86
2021/03/21 00:41:09;;;;;;;17.55;8.18;;;6.80;95.40;;;;;;5079069;28;20168;-86
2021/03/21 00:43:36;;;;;;;19.38;8.88;;;6.90;95.50;;;;;;5087748;28;20047;-86
2021/03/21 00:46:03;;;;;;;21.25;8.98;;;6.80;95.60;;;;;;5048040;28;20135;-87
2021/03/21 00:48:32;;;;;;;19.00;8.98;;;6.80;95.80;;;;;;5090496;28;20047;-86
2021/03/21 00:50:59;;;;;;;15.85;7.70;;;6.80;95.70;;;;;;5065736;28;20048;-87
2021/03/21 00:53:25;;;;;;;18.73;8.05;;;6.80;95.70;;;;;;5067918;28;20131;-87
2021/03/21 00:55:52;;;;;;;17.65;8.65;;;6.90;95.50;;;;;;5086097;28;20507;-85
2021/03/21 00:58:18;;;;;;;14.07;7.30;;;6.90;95.60;;;;;;5086678;28;20063;-87
2021/03/21 01:00:48;;;;;;;17.35;7.20;;;6.90;95.50;;;;;;5066693;28;20480;-87
2021/03/21 01:03:14;;;;;;;15.13;8.50;;;6.90;95.40;;;;;;5079046;28;20052;-88
2021/03/21 01:05:46;;;;;;;15.73;8.18;;;6.90;95.50;;;;;;5096131;28;20419;-86
2021/03/21 01:08:23;;;;;;;18.23;7.60;;;6.90;95.60;;;;;;5091406;28;20044;-88
2021/03/21 01:10:53;;;;;;;13.95;6.65;;;6.90;95.60;;;;;;5070044;28;20099;-86
2021/03/21 01:13:19;;;;;;;14.60;6.05;;;6.80;95.90;;;;;;5085832;28;20060;-86
2021/03/21 01:15:45;;;;;;;17.98;8.27;;;6.80;96.10;;;;;;5072208;28;20052;-86
2021/03/21 01:18:22;;;;;;;15.18;7.10;;;6.70;96.30;;;;;;5101507;28;20035;-86
2021/03/21 01:20:48;;;;;;;12.88;5.15;;;6.60;96.50;;;;;;5082963;28;20040;-86
2021/03/21 01:23:15;;;;;;;15.10;6.95;;;6.60;96.70;;;;;;5070593;28;20622;-88
2021/03/21 01:25:42;;;;;;;10.18;5.63;;;6.70;96.70;;;;;;5076335;28;20051;-86
2021/03/21 01:28:20;;;;;;;12.20;5.45;;;6.70;96.50;;;;;;5076949;28;20479;-86
2021/03/21 01:30:45;;;;;;;10.27;4.57;;;6.70;96.50;;;;;;5077303;28;20128;-86
2021/03/21 01:33:11;;;;;;;12.40;5.90;;;6.70;96.40;;;;;;5081953;28;20123;-86
2021/03/21 01:35:37;;;;;;;11.95;5.88;;;6.70;96.50;;;;;;5092543;28;20052;-86
2021/03/21 01:38:03;;;;;;;16.38;7.22;;;6.60;96.40;;;;;;5070072;28;20056;-86
2021/03/21 01:40:29;;;;;;;12.80;6.88;;;6.60;96.30;;;;;;5095773;28;20075;-86
2021/03/21 01:42:54;;;;;;;19.25;7.70;;;6.70;96.20;;;;;;5064740;28;20500;-87
2021/03/21 01:45:47;;;;;;;15.40;5.72;;;6.60;96.30;;;;;;5058374;28;20131;-87
2021/03/21 01:48:16;;;;;;;11.60;5.13;;;6.60;96.20;;;;;;5055409;28;20143;-88
2021/03/21 01:51:12;;;;;;;13.15;5.28;;;6.70;96.00;;;;;;5086093;28;20558;-86
2021/03/21 01:53:41;;;;;;;11.93;5.75;;;6.60;96.20;;;;;;5073406;28;20048;-87
2021/03/21 01:56:10;;;;;;;11.48;5.82;;;6.60;96.10;;;;;;5063648;28;20064;-87
2021/03/21 01:58:36;;;;;;;14.00;6.43;;;6.60;95.80;;;;;;5066883;28;20049;-86
2021/03/21 02:01:17;;;;;;;13.18;5.75;;;6.60;96.00;;;;;;5092069;28;20044;-86
2021/03/21 02:03:44;;;;;;;10.43;4.80;;;6.60;95.70;;;;;;5071254;28;20071;-86
2021/03/21 02:06:35;;;;;;;13.20;5.85;;;6.60;95.80;;;;;;5072977;28;20052;-87
2021/03/21 02:09:22;;;;;;;19.13;6.78;;;6.60;95.30;;;;;;5063340;28;20406;-86
2021/03/21 02:12:26;;;;;;;15.02;5.45;;;6.60;95.40;;;;;;5091716;28;20039;-87
2021/03/21 02:14:54;;;;;;;13.15;5.32;;;6.60;95.40;;;;;;5056068;28;20112;-87
2021/03/21 02:17:36;;;;;;;9.68;4.07;;;6.60;95.50;;;;;;5064670;28;20060;-87
2021/03/21 02:20:31;;;;;;;13.85;5.00;;;6.60;95.30;;;;;;5092097;28;20052;-86
2021/03/21 02:23:30;;;;;;;13.70;4.90;;;6.70;95.00;;;;;;5052794;28;20059;-87
2021/03/21 02:26:10;;;;;;;14.30;5.07;;;6.70;94.90;;;;;;5070430;28;20052;-87
2021/03/21 02:28:57;;;;;;;17.08;5.30;;;6.70;94.80;;;;;;5066242;28;20067;-86
2021/03/21 02:31:29;;;;;;;16.25;5.53;;;6.70;94.80;;;;;;5079967;28;20047;-86
2021/03/21 02:34:00;;;;;;;10.32;5.13;;;6.70;94.80;;;;;;5085890;28;20108;-87
2021/03/21 02:36:49;;;;;;;12.25;4.93;;;6.70;94.80;;;;;;5081393;28;20044;-86
2021/03/21 02:39:39;;;;;;;11.20;4.85;;;6.70;94.70;;;;;;5056123;28;20544;-89
2021/03/21 02:42:10;;;;;;;12.10;4.88;;;6.70;94.60;;;;;;5064949;28;20052;-87
2021/03/21 02:44:46;;;;;;;12.40;4.47;;;6.80;94.10;;;;;;5077395;28;20071;-87
2021/03/21 02:47:18;;;;;;;9.07;3.70;;;6.80;94.30;;;;;;5073466;28;20067;-86
2021/03/21 02:49:48;;;;;;;8.10;3.22;;;6.70;94.50;;;;;;5085620;28;20051;-87
2021/03/21 02:52:48;;;;;;;13.70;5.18;;;6.90;94.00;;;;;;5082213;28;20075;-87
2021/03/21 02:55:29;;;;;;;10.52;3.72;;;6.80;94.20;;;;;;5060146;28;20147;-89
2021/03/21 02:58:24;;;;;;;14.25;3.20;;;6.80;94.20;;;;;;5060543;28;20048;-88
2021/03/21 03:00:56;;;;;;;13.40;3.40;;;6.90;93.90;;;;;;5058592;28;20055;-87
2021/03/21 03:03:24;;;;;;;10.68;3.35;;;6.90;93.80;;;;;;5078148;28;20108;-86
2021/03/21 03:05:58;;;;;;;8.63;3.03;;;6.90;93.70;;;;;;5074340;28;20510;-87
2021/03/21 03:08:35;;;;;;;10.07;2.22;;;6.90;93.80;;;;;;5104766;28;20113;-86
2021/03/21 03:11:07;;;;;;;11.70;3.33;;;6.90;93.90;;;;;;5101688;28;20073;-89
2021/03/21 03:13:51;;;;;;;8.90;3.38;;;6.90;93.70;;;;;;5104520;28;20040;-87
2021/03/21 03:16:19;;;;;;;3.88;1.58;;;6.90;94.10;;;;;;5068679;28;20394;-87
2021/03/21 03:19:10;;;;;;;9.40;2.85;;;6.90;93.90;;;;;;5077174;28;20094;-86
2021/03/21 03:21:55;;;;;;;5.28;1.88;;;6.90;94.40;;;;;;5050399;28;20051;-87
2021/03/21 03:24:39;;;;;;;13.02;2.58;;;6.90;94.50;;;;;;5077181;28;20134;-86
2021/03/21 03:27:14;;;;;;;9.38;1.95;;;6.80;94.70;;;;;;5082122;28;20054;-87
2021/03/21 03:29:47;;;;;;;9.90;2.22;;;6.80;94.70;;;;;;5107645;28;20055;-87
2021/03/21 03:32:14;;;;;;;7.40;2.08;;;6.80;94.80;;;;;;5086688;28;20088;-86
2021/03/21 03:34:44;;;;;;;12.10;2.05;;;6.80;94.70;;;;;;5092048;28;20058;-87
2021/03/21 03:37:11;;;;;;;12.45;2.65;;;6.80;94.50;;;;;;5100794;28;20043;-87
2021/03/21 03:39:38;;;;;;;17.80;2.97;;;6.80;94.70;;;;;;5085654;28;20056;-86
2021/03/21 03:42:26;;;;;;;15.43;3.15;;;6.80;94.50;;;;;;5095826;28;20047;-86
2021/03/21 03:45:01;;;;;;;15.55;2.60;;;6.80;94.30;;;;;;5086749;28;20440;-86
2021/03/21 03:47:53;;;;;;;12.75;2.22;;;6.80;94.40;;;;;;5106619;28;20138;-86
2021/03/21 03:50:33;;;;;;;10.77;2.63;;;6.80;94.10;;;;;;5071980;28;20047;-86
2021/03/21 03:53:17;;;;;;;10.88;2.10;;;6.90;93.80;;;;;;5084299;28;20510;-89
2021/03/21 03:56:09;;;;;;;12.40;1.65;;;6.90;93.40;;;;;;5094438;28;20131;-85
2021/03/21 03:58:53;;;;;;;12.10;2.40;;;6.80;93.90;;;;;;5090071;28;20040;-87
2021/03/21 04:01:35;;;;;;;13.05;2.05;;;6.70;94.30;;;;;;5067757;28;20047;-86
2021/03/21 04:04:29;;;;;;;8.23;2.05;;;6.80;93.90;;;;;;5093142;28;20043;-88
2021/03/21 04:06:59;;;;;;;11.00;1.48;;;6.80;93.30;;;;;;5090389;28;20044;-87
2021/03/21 04:09:41;;;;;;;6.10;1.65;;;6.70;93.00;;;;;;5098022;28;20048;-87
2021/03/21 04:12:14;;;;;;;10.02;1.50;;;6.80;92.30;;;;;;5040271;28;20048;-86
2021/03/21 04:14:48;;;;;;;8.85;1.80;;;6.70;92.50;;;;;;5085735;28;20072;-87
2021/03/21 04:17:19;;;;;;;8.73;1.88;;;6.60;92.20;;;;;;5104776;28;20408;-87
2021/03/21 04:20:02;;;;;;;13.70;2.00;;;6.60;92.60;;;;;;5060933;28;20193;-86
2021/03/21 04:22:32;;;;;;;12.18;2.00;;;6.60;92.80;;;;;;5077524;28;20044;-86
2021/03/21 04:25:05;;;;;;;13.48;2.80;;;6.60;92.90;;;;;;5087566;28;20047;-87
2021/03/21 04:27:38;;;;;;;11.75;2.47;;;6.60;93.00;;;;;;5089971;28;20044;-86
2021/03/21 04:30:07;;;;;;;11.50;2.38;;;6.60;93.10;;;;;;5086531;28;20043;-87
2021/03/21 04:32:41;;;;;;;14.95;2.58;;;6.60;92.80;;;;;;5087041;28;20434;-87
2021/03/21 04:35:12;;;;;;;10.13;1.92;;;6.60;92.70;;;;;;5074161;28;20476;-86
2021/03/21 04:37:43;;;;;;;11.32;2.13;;;6.60;92.40;;;;;;5072249;28;20072;-86
2021/03/21 04:40:11;;;;;;;8.75;2.20;;;6.70;91.70;;;;;;5090188;28;20052;-87
2021/03/21 04:42:51;;;;;;;7.32;1.73;;;6.70;91.50;;;;;;5089676;28;20044;-86
2021/03/21 04:45:20;;;;;;;8.77;1.75;;;6.70;90.80;;;;;;5070641;28;20085;-86
2021/03/21 04:47:56;;;;;;;6.03;1.77;;;6.90;89.90;;;;;;5088547;28;20041;-86
2021/03/21 04:50:22;;;;;;;11.88;2.80;;;6.90;90.00;;;;;;5053540;28;20606;-87
2021/03/21 04:53:00;;;;;;;6.82;1.80;;;7.00;89.20;;;;;;5070661;28;20051;-86
2021/03/21 04:55:35;;;;;;;4.72;1.60;;;6.90;88.70;;;;;;5081335;28;20123;-86
2021/03/21 04:58:05;;;;;;;8.25;2.35;;;6.80;88.50;;;;;;5071174;28;20040;-89
2021/03/21 05:00:39;;;;;;;6.55;1.80;;;6.80;88.80;;;;;;5070855;28;20072;-86
2021/03/21 05:03:25;;;;;;;8.68;2.10;;;6.80;88.40;;;;;;5059330;28;20048;-87
2021/03/21 05:06:10;;;;;;;14.95;3.10;;;6.70;88.90;;;;;;5089062;28;20051;-87
2021/03/21 05:08:46;;;;;;;;;;;6.70;89.10;;;;;;5075291;28;20480;-86
2021/03/21 05:11:14;;;;;;;9.43;2.20;;;6.70;88.70;;;;;;5044875;28;19920;-87
2021/03/21 05:13:48;;;;;;;9.10;1.83;;;6.70;88.60;;;;;;5084120;28;20040;-86
2021/03/21 05:16:22;;;;;;;13.30;2.28;;;6.70;88.30;;;;;;5101120;27;20048;-87
2021/03/21 05:18:51;;;;;;;12.93;2.22;;;6.60;89.20;;;;;;5104514;28;20048;-86
2021/03/21 05:21:29;;;;;;;6.60;2.15;;;6.70;88.00;;;;;;5081596;28;20060;-87
2021/03/21 05:24:04;;;;;;;15.18;3.05;;;6.60;88.80;;;;;;5069552;28;20044;-87
2021/03/21 05:26:37;;;;;;;22.60;2.50;;;6.60;89.10;;;;;;5080009;28;20430;-86
2021/03/21 05:29:35;;;;;;;13.60;2.00;;;6.60;88.10;;;;;;5077376;28;20053;-88
2021/03/21 05:32:01;;;;;;;8.23;2.40;;;6.70;88.20;;;;;;5089878;28;20047;-89
2021/03/21 05:34:27;;;;;;;12.65;3.25;;;6.60;89.20;;;;;;5103912;27;20468;-87
2021/03/21 05:37:19;;;;;;;13.60;3.38;;;6.70;86.10;;;;;;5076844;28;20048;-89
2021/03/21 05:39:53;;;;;;;13.80;2.72;;;6.70;85.70;;;;;;5076624;28;20130;-87
2021/03/21 05:42:25;;;;;;;7.35;2.03;;;6.60;87.10;;;;;;5087199;28;20055;-87
2021/03/21 05:45:15;;;;;;;13.38;2.80;;;6.70;86.70;;;;;;5090349;28;20446;-88
2021/03/21 05:48:08;;;;;;;16.38;2.97;;;6.60;87.30;;;;;;5063732;28;20048;-88
2021/03/21 05:51:15;;;;;;;20.35;3.35;;;6.60;87.70;;;;;;5078570;28;20060;-87
2021/03/21 05:53:59;;;;;;;13.50;3.40;;;6.60;88.50;;;;;;5071429;28;20056;-88
2021/03/21 05:57:03;;;;;;;10.07;2.95;;;6.60;88.80;;;;;;5089381;28;20056;-88
2021/03/21 05:59:53;;;;;;;13.40;3.47;;;6.50;87.80;;;;;;5081066;28;20399;-89
2021/03/21 06:02:56;;;;;;;9.07;2.47;;;6.50;85.70;;;;;;5061623;28;20495;-88
2021/03/21 06:05:30;;;;;;;11.93;2.85;;;6.50;83.10;;;;;;5045661;28;20048;-88
2021/03/21 06:08:24;;;;;;;12.05;3.22;;;6.40;82.60;;;;;;5099762;28;20075;-88
2021/03/21 06:11:26;;;;;;;12.95;3.47;;;6.50;81.90;;;;;;5070218;28;23009;-88
2021/03/21 06:14:23;;;;;;;15.52;3.38;;;6.30;82.50;;;;;;5070100;28;20041;-88
2021/03/21 06:17:11;;;;;;;12.07;2.75;;;6.30;83.40;;;;;;5050664;28;20044;-88
2021/03/21 06:19:52;;;;;;;20.60;3.08;;;6.30;84.00;;;;;;5067819;28;20047;-88
2021/03/21 06:23:02;;;;;;;15.60;3.90;;;6.20;85.10;;;;;;5076584;28;20051;-88
2021/03/21 06:25:59;;;;;;;15.75;2.85;;;6.30;83.70;;;;;;5035735;28;20093;-89
2021/03/21 06:28:53;;;;;;;11.45;2.45;;;6.30;84.30;;;;;;5079189;28;20085;-88
2021/03/21 06:31:47;;;;;;;29.88;4.38;;;6.30;83.70;;;;;;5056463;28;20048;-88
2021/03/21 06:34:19;;;;;;;9.48;2.10;;;6.30;84.20;;;;;;5049685;28;20088;-88
2021/03/21 06:37:25;;;;;;;15.57;2.83;;;6.30;84.10;;;;;;5054011;28;20048;-89
2021/03/21 06:40:12;;;;;;;13.55;3.30;;;6.40;83.50;;;;;;5067748;28;20121;-88
2021/03/21 06:42:52;;;;;;;22.92;3.35;;;6.40;83.70;;;;;;5071469;28;20062;-89
2021/03/21 06:45:33;;;;;;;15.63;2.72;;;6.30;84.90;;;;;;5106064;28;20535;-89
2021/03/21 06:48:40;;;;;;;12.85;3.10;;;6.30;84.80;;;;;;5095833;28;20134;-88
2021/03/21 06:51:27;;;;;;;16.45;4.00;;;6.30;85.10;;;;;;5030509;28;20049;-87
2021/03/21 06:54:01;;;;;;;12.98;2.67;;;6.30;85.80;;;;;;5100129;28;20056;-88
2021/03/21 06:56:51;;;;;;;12.85;3.35;;;6.40;85.80;;;;;;5071060;28;20048;-87
2021/03/21 06:59:44;;;;;;;19.50;4.25;;;6.60;84.80;;;;;;5039951;28;20044;-88
2021/03/21 07:02:34;;;;;;;13.73;3.10;;;6.50;85.30;;;;;;5048218;28;20139;-88
2021/03/21 07:05:09;;;;;;;20.30;3.65;;;6.60;83.20;;;;;;5078358;28;20097;-86
2021/03/21 07:07:54;;;;;;;22.30;4.07;;;6.60;83.30;;;;;;5094091;28;20052;-88
2021/03/21 07:10:56;;;;;;;10.07;2.88;;;6.50;82.10;;;;;;5075990;28;20134;-87
2021/03/21 07:13:43;;;;;;;9.90;2.67;;;6.50;82.00;;;;;;5039525;28;20048;-88
2021/03/21 07:16:41;;;;;;;16.30;3.13;;;6.50;81.30;;;;;;5067385;28;20049;-88
2021/03/21 07:19:25;;;;;;;12.73;3.00;;;6.60;81.60;;;;;;4979979;28;20055;-89
2021/03/21 07:22:00;;;;;;;15.68;3.05;;;6.60;81.30;;;;;;5087002;28;20059;-87
2021/03/21 07:24:41;;;;;;;23.38;4.07;;;6.60;82.00;;;;;;5072153;28;20048;-89
2021/03/21 07:27:52;;;;;;;15.73;3.30;;;6.60;82.30;;;;;;5079192;28;20436;-88
2021/03/21 07:30:31;;;;;;;25.02;4.20;;;6.70;81.40;;;;;;5016591;28;20075;-87
2021/03/21 07:33:15;;;;;;;25.23;4.85;;;6.60;83.50;;;;;;5103829;28;20055;-90
2021/03/21 07:36:11;;;;;;;21.75;5.35;;;6.70;82.90;;;;;;5076429;28;20044;-87
2021/03/21 07:39:10;;;;;;;10.55;3.30;;;6.80;81.50;;;;;;5055379;28;20048;-88
2021/03/21 07:41:56;;;;;;;11.50;3.13;;;6.90;80.10;;;;;;5065134;28;20136;-87
2021/03/21 07:44:37;;;;;;;27.42;5.13;;;6.90;79.70;;;;;;5056170;28;20050;-88
2021/03/21 07:47:26;;;;;;;13.45;3.53;;;6.80;80.40;;;;;;5077398;28;20482;-89
2021/03/21 07:50:17;;;;;;;13.60;2.92;;;6.90;79.90;;;;;;5063735;28;20049;-87
2021/03/21 07:52:51;;;;;;;14.98;3.45;;;6.80;79.80;;;;;;5049854;28;20392;-87
2021/03/21 07:55:39;;;;;;;15.02;3.65;;;6.90;79.50;;;;;;5073844;28;20513;-86
2021/03/21 07:58:14;;;;;;;15.48;3.75;;;7.00;77.90;;;;;;5082691;28;20078;-90
2021/03/21 08:00:40;;;;;;;25.92;5.10;;;7.00;78.30;;;;;;5095982;28;20059;-86
2021/03/21 08:03:12;;;;;;;16.08;3.58;;;7.00;79.20;;;;;;5083144;28;20134;-90
2021/03/21 08:05:39;;;;;;;19.90;4.00;;;6.90;79.90;;;;;;5061713;28;20047;-88
2021/03/21 08:08:11;;;;;;;14.77;3.42;;;7.00;79.50;;;;;;5071790;28;20056;-89
2021/03/21 08:10:39;;;;;;;23.33;4.65;;;7.10;79.40;;;;;;5073249;28;20044;-89
2021/03/21 08:13:19;;;;;;;19.30;3.75;;;7.10;80.30;;;;;;5062555;28;20052;-89
2021/03/21 08:15:45;;;;;;;17.60;4.40;;;7.20;78.60;;;;;;5090874;28;20044;-90
2021/03/21 08:18:22;;;;;;;16.08;3.70;;;7.10;79.10;;;;;;5077852;28;20052;-84
2021/03/21 08:20:51;;;;;;;20.63;3.80;;;7.20;78.80;;;;;;5082907;28;20036;-89
2021/03/21 08:23:34;;;;;;;18.35;3.08;;;7.20;79.10;;;;;;5084378;28;20836;-89
2021/03/21 08:26:11;;;;;;;20.92;3.70;;;7.20;78.80;;;;;;5059640;28;20048;-89
2021/03/21 08:29:05;;;;;;;20.67;3.42;;;7.20;78.90;;;;;;5060585;28;20128;-88
2021/03/21 08:31:36;;;;;;;26.85;4.57;;;7.20;79.60;;;;;;5102015;28;20119;-90
2021/03/21 08:34:36;;;;;;;25.30;4.30;;;7.10;80.80;;;;;;5094610;28;20050;-86
2021/03/21 08:37:31;;;;;;;10.77;2.47;;;7.20;80.10;;;;;;5091785;28;20059;-86
2021/03/21 08:40:32;;;;;;;14.50;3.25;;;7.40;78.10;;;;;;5093000;28;20502;-86
2021/03/21 08:43:21;;;;;;;17.88;3.65;;;7.30;79.20;;;;;;5014028;28;20155;-87
2021/03/21 08:45:54;;;;;;;25.88;4.68;;;7.30;78.30;;;;;;5056216;28;20051;-85
2021/03/21 08:48:34;;;;;;;15.95;3.83;;;7.20;79.30;;;;;;5057634;28;20052;-84
2021/03/21 08:51:12;;;;;;;19.98;4.60;;;7.20;80.10;;;;;;5095071;28;20048;-87
2021/03/21 08:53:56;;;;;;;18.52;3.97;;;7.30;76.90;;;;;;5064612;28;20141;-86
2021/03/21 08:56:28;;;;;;;23.17;3.92;;;7.30;77.60;;;;;;5090631;28;20044;-86
2021/03/21 08:59:26;;;;;;;19.02;4.07;;;7.30;76.60;;;;;;5103646;28;20070;-86
2021/03/21 09:02:04;;;;;;;13.25;3.33;;;7.30;76.20;;;;;;5070594;28;20055;-85
2021/03/21 09:04:34;;;;;;;16.73;3.15;;;7.40;75.80;;;;;;5089110;28;20491;-85
2021/03/21 09:07:23;;;;;;;9.02;2.92;;;7.40;76.20;;;;;;5072883;28;20044;-86
2021/03/21 09:10:11;;;;;;;22.60;4.07;;;7.40;75.40;;;;;;5076727;28;20135;-86
2021/03/21 09:12:48;;;;;;;12.15;4.05;;;7.40;75.30;;;;;;5076601;28;20049;-85
2021/03/21 09:15:16;;;;;;;20.77;3.60;;;7.40;75.40;;;;;;5095434;28;20051;-86
2021/03/21 09:17:59;;;;;;;15.20;3.40;;;7.50;75.60;;;;;;5088920;28;20070;-85
2021/03/21 09:20:25;;;;;;;16.80;3.83;;;7.40;75.40;;;;;;5085835;28;20047;-86
2021/03/21 09:22:51;;;;;;;25.35;5.35;;;7.50;75.60;;;;;;5082606;28;20395;-86
2021/03/21 09:25:30;;;;;;;18.45;3.85;;;7.40;77.90;;;;;;5082981;28;20572;-86
2021/03/21 09:27:58;;;;;;;18.75;4.50;;;7.40;78.60;;;;;;5070723;28;20044;-87
2021/03/21 09:30:45;;;;;;;11.30;3.38;;;7.30;79.70;;;;;;5073757;28;20052;-86
2021/03/21 09:33:16;;;;;;;15.82;3.92;;;7.60;76.90;;;;;;5054948;28;20047;-87
2021/03/21 09:35:45;;;;;;;22.90;5.32;;;7.60;77.10;;;;;;5100996;28;20047;-87
2021/03/21 09:38:22;;;;;;;18.20;3.97;;;7.50;78.30;;;;;;5075690;28;20542;-87
2021/03/21 09:40:54;;;;;;;19.08;4.03;;;7.60;76.60;;;;;;5082359;28;20046;-86
2021/03/21 09:43:25;;;;;;;21.00;3.67;;;7.60;77.10;;;;;;5070557;28;20044;-87
2021/03/21 09:46:00;;;;;;;22.05;4.60;;;7.60;76.50;;;;;;5094590;28;20464;-86
2021/03/21 09:48:38;;;;;;;15.10;3.80;;;7.60;75.90;;;;;;5075501;28;20075;-86
2021/03/21 09:51:15;;;;;;;16.02;3.65;;;7.70;75.70;;;;;;5076134;28;20048;-86
2021/03/21 09:53:57;;;;;;;21.02;3.80;;;7.50;78.40;;;;;;5078219;28;20048;-87
2021/03/21 09:56:54;;;;;;;20.35;3.63;;;7.60;76.90;;;;;;5087207;28;20480;-86
2021/03/21 10:00:03;;;;;;;22.25;4.03;;;7.70;77.00;;;;;;5007264;28;20130;-87
2021/03/21 10:02:44;;;;;;;20.95;4.20;;;7.70;76.50;;;;;;5015023;28;20045;-87
2021/03/21 10:05:50;;;;;;;17.92;4.13;;;7.80;74.90;;;;;;4984277;28;20058;-87
2021/03/21 10:09:01;;;;;;;16.38;3.42;;;7.80;73.30;;;;;;4982516;28;20060;-87
2021/03/21 10:11:48;;;;;;;16.30;3.42;;;7.90;71.20;;;;;;5036245;28;20049;-86
2021/03/21 10:14:26;;;;;;;22.90;4.53;;;7.90;70.00;;;;;;5035175;28;20397;-87
2021/03/21 10:16:57;;;;;;;18.98;4.18;;;7.90;72.50;;;;;;5030107;28;20046;-86
2021/03/21 10:19:53;;;;;;;12.98;2.75;;;7.90;71.10;;;;;;5030929;28;20082;-87
2021/03/21 10:22:25;;;;;;;16.23;3.33;;;7.90;71.50;;;;;;5003690;28;20053;-86
2021/03/21 10:24:55;;;;;;;16.40;3.40;;;7.70;72.80;;;;;;5042593;28;20047;-86
2021/03/21 10:27:22;;;;;;;18.02;4.05;;;7.70;72.40;;;;;;5037688;28;20052;-86
2021/03/21 10:30:39;;;;;;;20.75;3.65;;;7.80;72.30;;;;;;5001915;28;20450;-87
2021/03/21 10:33:05;;;;;;;21.50;4.00;;;7.90;72.10;;;;;;5019515;28;20053;-86
2021/03/21 10:35:30;;;;;;;19.13;4.95;;;7.80;73.00;;;;;;5065693;27;20493;-85
2021/03/21 10:38:04;;;;;;;18.83;4.32;;;7.80;74.00;;;;;;5107858;27;20128;-87
2021/03/21 10:40:29;;;;;;;19.02;4.03;;;7.80;73.70;;;;;;5070767;28;20048;-87
2021/03/21 10:42:57;;;;;;;22.60;4.68;;;7.80;74.40;;;;;;5083898;28;20046;-88
2021/03/21 10:45:43;;;;;;;24.02;5.03;;;7.80;74.60;;;;;;5103267;28;20376;-87
2021/03/21 10:48:10;;;;;;;21.50;5.15;;;8.00;73.50;;;;;;5046647;28;20464;-86
2021/03/21 10:50:45;;;;;;;16.10;3.42;;;8.00;72.40;;;;;;5110655;28;20048;-86
2021/03/21 10:53:18;;;;;;;16.35;3.65;;;;;;;;;;5110802;28;20131;-87
2021/03/21 10:56:00;;;;;;;16.35;3.70;;;;;;;;;;5091142;28;20499;-86
2021/03/21 10:58:29;;;;;;;17.35;3.63;;;;;;;;;;5091802;28;20055;-87
2021/03/21 11:01:14;;;;;;;23.00;5.60;;;;;;;;;;5106968;28;20048;-87
2021/03/21 11:03:41;;;;;;;26.58;4.65;;;;;;;;;;5095388;28;20051;-87
2021/03/21 11:06:13;;;;;;;18.15;3.95;;;;;;;;;;5108998;28;20445;-87
2021/03/21 11:08:39;;;;;;;23.13;4.45;;;8.20;71.60;;;;;;5111212;28;20059;-88
2021/03/21 11:11:20;;;;;;;25.42;5.15;;;8.20;72.80;;;;;;5113636;28;20447;-88
2021/03/21 11:13:52;;;;;;;15.50;3.42;;;8.30;73.70;;;;;;5074495;28;20145;-87
2021/03/21 11:16:23;;;;;;;15.30;3.30;;;8.40;72.60;;;;;;5109619;28;20155;-87
2021/03/21 11:19:04;;;;;;;15.07;3.47;;;8.50;70.50;;;;;;5108302;28;20051;-87
2021/03/21 11:21:36;;;;;;;25.25;4.35;;;8.40;71.50;;;;;;5109645;28;20089;-88
2021/03/21 11:24:27;;;;;;;24.90;4.32;;;8.30;73.00;;;;;;5092462;28;20055;-87
2021/03/21 11:26:53;;;;;;;25.55;4.05;;;8.30;74.90;;;;;;5093201;28;20047;-87
2021/03/21 11:29:41;;;;;;;21.58;3.80;;;8.30;74.20;;;;;;5094770;28;20044;-87
2021/03/21 11:32:24;;;;;;;23.55;5.35;;;8.30;73.20;;;;;;5057409;28;20059;-87
2021/03/21 11:35:04;;;;;;;14.82;4.03;;;8.20;71.80;;;;;;5081857;28;20055;-87
2021/03/21 11:37:36;;;;;;;21.00;4.57;;;8.20;73.40;;;;;;5082321;28;20603;-87
2021/03/21 11:40:34;;;;;;;24.38;4.10;;;8.20;73.90;;;;;;5075696;28;20047;-86
2021/03/21 11:43:18;;;;;;;13.32;4.20;;;8.20;72.50;;;;;;5063869;28;20128;-86
2021/03/21 11:45:45;;;;;;;28.40;4.47;;;8.20;72.30;;;;;;5059338;28;20057;-85
2021/03/21 11:48:21;;;;;;;23.58;4.63;;;8.10;72.90;;;;;;5076357;28;20051;-87
2021/03/21 11:50:52;;;;;;;21.63;4.30;;;8.10;73.40;;;;;;5085279;28;20051;-86
2021/03/21 11:53:22;;;;;;;14.45;3.40;;;8.00;73.50;;;;;;5094427;28;20385;-85
2021/03/21 11:56:04;;;;;;;24.65;5.72;;;8.10;74.00;;;;;;5074550;28;20060;-86
2021/03/21 11:58:38;;;;;;;20.52;3.70;;;8.00;75.70;;;;;;5053462;28;20214;-90
2021/03/21 12:01:31;;;;;;;13.02;3.17;;;8.10;74.80;;;;;;5040598;28;20439;-87
2021/03/21 12:04:03;;;;;;;18.60;4.00;;;8.10;75.20;;;;;;5011632;28;20497;-89
2021/03/21 12:06:32;;;;;;;31.88;5.60;;;8.10;75.30;;;;;;5010811;28;20246;-86
2021/03/21 12:09:36;;;;;;;30.52;5.30;;;8.10;75.90;;;;;;5002536;28;20130;-86
2021/03/21 12:12:06;;;;;;;27.27;4.43;;;8.10;76.70;;;;;;5009238;28;20051;-84
2021/03/21 12:14:32;;;;;;;18.67;4.47;;;8.20;76.60;;;;;;5022969;28;20048;-85
2021/03/21 12:17:23;;;;;;;29.38;4.72;;;8.30;76.80;;;;;;5075301;28;20071;-86
2021/03/21 12:19:54;;;;;;;21.42;4.25;;;8.40;77.10;;;;;;5073615;28;20514;-85
2021/03/21 12:22:40;;;;;;;24.58;5.70;;;8.40;75.70;;;;;;5061148;28;20044;-85
2021/03/21 12:25:25;;;;;;;18.88;4.30;;;8.40;76.70;;;;;;5073837;28;20048;-83
2021/03/21 12:28:00;;;;;;;22.15;3.25;;;8.50;73.60;;;;;;5081335;28;20052;-84
2021/03/21 12:30:31;;;;;;;25.60;5.53;;;8.40;73.40;;;;;;5062661;28;20112;-89
2021/03/21 12:33:28;;;;;;;21.95;4.07;;;8.20;73.30;;;;;;5093938;28;20040;-88
2021/03/21 12:36:18;;;;;;;20.65;3.28;;;8.20;73.10;;;;;;5107209;28;20058;-86
2021/03/21 12:38:52;;;;;;;10.40;3.05;;;8.10;72.90;;;;;;5092888;28;20051;-84
2021/03/21 12:41:31;;;;;;;15.05;4.07;;;8.20;72.30;;;;;;5086917;28;20062;-84
2021/03/21 12:44:10;;;;;;;20.15;5.15;;;8.00;72.50;;;;;;5083740;28;20488;-85
2021/03/21 12:46:45;;;;;;;27.75;5.72;;;8.00;73.10;;;;;;5092529;28;20881;-85
2021/03/21 12:49:27;;;;;;;;;;;8.00;73.20;;;;;;5081052;28;20059;-88
2021/03/21 12:51:58;;;;;;;23.75;3.80;;;8.00;74.10;;;;;;5072885;28;19955;-85
2021/03/21 12:54:24;;;;;;;17.40;3.15;;;8.10;73.50;;;;;;5085434;28;20408;-86
2021/03/21 12:56:50;;;;;;;15.55;3.88;;;8.10;74.00;;;;;;5067766;28;20098;-85
2021/03/21 12:59:16;;;;;;;25.75;4.68;;;8.00;73.30;;;;;;5080753;28;20492;-89
2021/03/21 13:01:46;;;;;;;25.17;4.13;;;7.90;74.80;;;;;;5084353;28;20536;-85
2021/03/21 13:04:12;;;;;;;14.27;3.03;;;7.90;75.90;;;;;;5083971;28;20040;-89
2021/03/21 13:06:39;;;;;;;17.02;3.55;;;7.90;74.20;;;;;;5086593;28;20645;-86
2021/03/21 13:09:06;;;;;;;17.80;3.70;;;7.90;74.50;;;;;;5086445;28;20044;-86
2021/03/21 13:11:33;;;;;;;23.70;4.72;;;7.80;75.40;;;;;;5077696;28;20793;-86
2021/03/21 13:13:59;;;;;;;18.75;4.70;;;7.70;76.40;;;;;;5076641;28;20056;-86
2021/03/21 13:16:25;;;;;;;12.63;2.97;;;7.90;75.20;;;;;;5081097;28;20052;-84
2021/03/21 13:18:50;;;;;;;8.98;2.78;;;7.90;74.00;;;;;;5079295;28;20068;-84
2021/03/21 13:21:16;;;;;;;10.65;3.00;;;7.90;72.80;;;;;;5071849;28;20404;-87
2021/03/21 13:23:42;;;;;;;23.30;4.50;;;7.80;74.10;;;;;;5085837;28;20135;-85
2021/03/21 13:26:08;;;;;;;20.17;5.30;;;7.90;75.80;;;;;;5071817;28;20399;-86
2021/03/21 13:28:34;;;;;;;16.77;3.50;;;7.90;76.00;;;;;;5080534;28;20128;-85
2021/03/21 13:31:01;;;;;;;16.80;3.95;;;8.10;75.20;;;;;;5083339;28;20519;-84
2021/03/21 13:33:29;;;;;;;21.60;5.10;;;8.10;74.10;;;;;;5082056;28;20078;-87
2021/03/21 13:35:56;;;;;;;20.92;6.20;;;8.10;73.20;;;;;;5071703;28;20517;-87
2021/03/21 13:38:24;;;;;;;19.85;4.95;;;8.00;74.90;;;;;;5078156;28;20098;-87
2021/03/21 13:40:51;;;;;;;26.77;7.70;;;8.00;74.90;;;;;;5091603;28;20117;-88
2021/03/21 13:43:18;;;;;;;12.00;2.97;;;8.00;76.20;;;;;;5085261;28;20136;-88
2021/03/21 13:45:45;;;;;;;16.70;4.35;;;8.10;75.20;;;;;;5072525;28;20079;-84